Terminal Aerodrome Forecast
Issued by NWS La Crosse, WI

Home | Current Version | Previous Version | Text Only | Print | Product List | Glossary On
Versions: 1 2 3 4 5 6 7 8 9 10 11 12 13 14 15 16 17 18 19 20 21 22 23 24 25 26 27 28 29 30 31 32 33 34 35 36 37 38 39 40 41 42 43 44 45 46 47 48
000
FTUS43 KARX 020727 AAA
TAFLSE
TAF AMD
KLSE 020727Z 0207/0306 VRB03KT P6SM OVC040
     FM020900 VRB03KT 4SM BR OVC012
      TEMPO 0210/0213 1/2SM FG OVC004
     FM022000 30004KT 5SM -RA BR OVC012
     FM030000 31004KT 4SM -RA BR OVC008=

USA.gov is the U.S. government's official web portal to all federal, state and local government web resources and services.